Погода Чампотонна неделю

Кампече, Мексика

05 - 11 марта
  • 05марта
    Сегодня
    +22°
    +35°
    Практически безоблачно
    ВремяПогодаТемператураВлажностьДавлениеВетер, м/сВероятность осадков
    00:00Практически безоблачно+27°C63 %757 мм4.9 м/с2 %
    03:00Ясно и безоблачно+25°C81 %756 мм5.1 м/с2 %
    06:00Ясно и безоблачно+23°C86 %757 мм4.8 м/с2 %
    09:00Небольшая облачность+29°C68 %758 мм3.7 м/с2 %
    12:00Ясно и безоблачно+35°C46 %757 мм0.7 м/с2 %
    15:00Практически безоблачно+34°C63 %755 мм5.0 м/с2 %
    18:00Ясно и безоблачно+30°C70 %755 мм3.3 м/с2 %
    21:00Ясно и безоблачно+28°C75 %757 мм4.0 м/с2 %
  • 06марта
    Среда
    +23°
    +34°
    Ясно и безоблачно
    ВремяПогодаТемператураВлажностьДавлениеВетер, м/сВероятность осадков
    00:00Ясно и безоблачно+26°C80 %757 мм1.8 м/с2 %
    03:00Ясно и безоблачно+24°C80 %756 мм2.1 м/с2 %
    06:00Ясно и безоблачно+23°C85 %757 мм1.7 м/с2 %
    09:00Ясно и безоблачно+28°C68 %758 мм2.4 м/с2 %
    12:00Ясно и безоблачно+33°C57 %758 мм3.6 м/с2 %
    15:00Ясно и безоблачно+32°C62 %756 мм5.4 м/с4 %
    18:00Ясно и безоблачно+29°C82 %757 мм3.7 м/с2 %
    21:00Ясно и безоблачно+27°C90 %758 мм3.2 м/с2 %
  • 07марта
    Четверг
    +23°
    +37°
    Ясно и безоблачно
    ВремяПогодаТемператураВлажностьДавлениеВетер, м/сВероятность осадков
    00:00Ясно и безоблачно+26°C89 %758 мм3.1 м/с2 %
    03:00Практически безоблачно+25°C83 %757 мм2.5 м/с2 %
    06:00Ясно и безоблачно+24°C83 %757 мм3.3 м/с2 %
    09:00Ясно и безоблачно+29°C66 %758 мм3.2 м/с2 %
    12:00Ясно и безоблачно+36°C42 %757 мм1.2 м/с2 %
    15:00Ясно и безоблачно+35°C56 %754 мм4.5 м/с2 %
    18:00Ясно и безоблачно+31°C70 %755 мм3.8 м/с2 %
    21:00Ясно и безоблачно+29°C76 %756 мм3.6 м/с2 %
  • 08марта
    Пятница
    +23°
    +40°
    Ясно и безоблачно
    ВремяПогодаТемператураВлажностьДавлениеВетер, м/сВероятность осадков
    00:00Ясно и безоблачно+28°C61 %757 мм4.9 м/с2 %
    03:00Ясно и безоблачно+26°C69 %756 мм5.0 м/с2 %
    06:00Ясно и безоблачно+24°C76 %756 мм5.5 м/с2 %
    09:00Ясно и безоблачно+29°C65 %757 мм5.5 м/с2 %
    12:00Ясно и безоблачно+38°C36 %756 мм5.7 м/с2 %
    15:00Ясно и безоблачно+40°C27 %753 мм4.3 м/с2 %
    18:00Ясно и безоблачно+35°C32 %753 мм3.8 м/с2 %
    21:00Ясно и безоблачно+31°C46 %755 мм7.0 м/с2 %
  • 09марта
    Суббота
    +24°
    +36°
    Ясно и безоблачно
    ВремяПогодаТемператураВлажностьДавлениеВетер, м/сВероятность осадков
    00:00Ясно и безоблачно+27°C60 %756 мм5.7 м/с2 %
    03:00Ясно и безоблачно+25°C72 %755 мм5.5 м/с2 %
    06:00Ясно и безоблачно+24°C79 %755 мм5.8 м/с2 %
    09:00Ясно и безоблачно+29°C66 %757 мм4.1 м/с2 %
    12:00Ясно и безоблачно+35°C47 %756 мм0.8 м/с2 %
    15:00Ясно и безоблачно+32°C65 %754 мм4.8 м/с2 %
    18:00Ясно и безоблачно+29°C79 %755 мм3.7 м/с2 %
    21:00Ясно и безоблачно+27°C84 %757 мм2.7 м/с2 %
Мы используем cookies
Соглашаюсь